createdAt,value
2023-04-21T00:01:22.367Z,13.70
2023-04-21T00:03:50.775Z,13.83
2023-04-21T00:06:22.659Z,13.77
2023-04-21T00:08:50.746Z,14.27
2023-04-21T00:11:18.162Z,13.73
2023-04-21T00:13:45.283Z,14.77
2023-04-21T00:16:12.361Z,14.47
2023-04-21T00:18:39.062Z,14.80
2023-04-21T00:21:06.205Z,14.40
2023-04-21T00:23:32.964Z,14.53
2023-04-21T00:26:02.607Z,14.70
2023-04-21T00:28:29.586Z,14.23
2023-04-21T00:30:57.596Z,14.83
2023-04-21T00:33:25.797Z,15.23
2023-04-21T00:35:54.418Z,14.60
2023-04-21T00:38:21.073Z,14.67
2023-04-21T00:40:47.774Z,14.93
2023-04-21T00:43:14.395Z,14.97
2023-04-21T00:45:41.036Z,15.20
2023-04-21T00:48:07.762Z,14.80
2023-04-21T00:50:34.596Z,15.80
2023-04-21T00:53:01.339Z,15.80
2023-04-21T00:55:29.000Z,16.03
2023-04-21T00:57:56.701Z,16.03
2023-04-21T01:00:27.884Z,16.40
2023-04-21T01:02:55.470Z,15.77
2023-04-21T01:05:23.616Z,15.50
2023-04-21T01:07:50.514Z,15.97
2023-04-21T01:10:17.185Z,16.30
2023-04-21T01:12:46.892Z,15.70
2023-04-21T01:15:15.684Z,16.27
2023-04-21T01:17:42.886Z,15.13
2023-04-21T01:20:13.288Z,15.93
2023-04-21T01:22:47.836Z,15.67
2023-04-21T01:25:15.032Z,15.30
2023-04-21T01:27:41.821Z,15.40
2023-04-21T01:30:09.916Z,15.47
2023-04-21T01:32:37.077Z,15.30
2023-04-21T01:35:07.103Z,16.20
2023-04-21T01:37:34.635Z,16.10
2023-04-21T01:40:07.106Z,15.43
2023-04-21T01:42:36.285Z,15.87
2023-04-21T01:45:03.748Z,16.63
2023-04-21T01:47:31.546Z,16.30
2023-04-21T01:49:58.307Z,16.60
2023-04-21T01:52:25.154Z,16.30
2023-04-21T01:54:54.467Z,17.23
2023-04-21T01:57:21.439Z,16.90
2023-04-21T01:59:49.555Z,16.07
2023-04-21T02:02:16.342Z,15.97
2023-04-21T02:04:42.997Z,17.00
2023-04-21T02:07:09.773Z,16.53
2023-04-21T02:09:36.653Z,15.23
2023-04-21T02:12:03.751Z,16.33
2023-04-21T02:14:30.488Z,15.60
2023-04-21T02:16:57.160Z,15.90
2023-04-21T02:19:24.335Z,15.83
2023-04-21T02:21:51.073Z,16.93
2023-04-21T02:24:17.851Z,16.03
2023-04-21T02:26:45.721Z,15.90
2023-04-21T02:29:12.500Z,15.50
2023-04-21T02:31:53.849Z,16.30
2023-04-21T02:34:24.367Z,16.47
2023-04-21T02:36:50.987Z,16.90
2023-04-21T02:39:19.467Z,17.03
2023-04-21T02:41:46.319Z,16.77
2023-04-21T02:44:12.931Z,16.87
2023-04-21T02:46:43.073Z,17.07
2023-04-21T02:49:10.731Z,17.33
2023-04-21T02:51:37.711Z,17.70
2023-04-21T02:54:05.395Z,17.63
2023-04-21T02:56:34.505Z,16.47
2023-04-21T02:59:01.176Z,16.07
2023-04-21T03:01:27.821Z,21.23
2023-04-21T03:03:54.613Z,18.13
2023-04-21T03:06:21.316Z,17.80
2023-04-21T03:08:49.380Z,17.67
2023-04-21T03:11:16.144Z,16.77
2023-04-21T03:13:42.818Z,18.60
2023-04-21T03:16:09.865Z,17.20
2023-04-21T03:18:36.720Z,17.57
2023-04-21T03:21:03.564Z,17.93
2023-04-21T03:23:30.507Z,17.70
2023-04-21T03:25:57.219Z,17.57
2023-04-21T03:28:23.957Z,18.07
2023-04-21T03:30:51.765Z,17.33
2023-04-21T03:33:18.382Z,18.97
2023-04-21T03:35:45.051Z,18.33
2023-04-21T03:38:11.785Z,18.30
2023-04-21T03:40:38.428Z,17.87
2023-04-21T03:43:05.124Z,18.70
2023-04-21T03:45:35.687Z,18.87
2023-04-21T03:48:02.681Z,19.30
2023-04-21T03:50:29.839Z,19.80
2023-04-21T03:52:56.522Z,20.23
2023-04-21T03:55:23.170Z,19.33
2023-04-21T03:57:49.803Z,18.30
2023-04-21T04:00:19.353Z,18.00
2023-04-21T04:02:46.177Z,17.40
2023-04-21T04:05:13.081Z,17.63
2023-04-21T04:07:42.594Z,17.40
2023-04-21T04:10:09.259Z,17.20
2023-04-21T04:12:38.205Z,17.33
2023-04-21T04:15:05.359Z,19.13
2023-04-21T04:17:32.089Z,18.60
2023-04-21T04:19:58.704Z,18.60
2023-04-21T04:22:25.530Z,17.47
2023-04-21T04:24:53.168Z,16.87
2023-04-21T04:27:21.381Z,16.47
2023-04-21T04:29:49.259Z,15.93
2023-04-21T04:32:16.279Z,16.07
2023-04-21T04:34:43.075Z,15.93
2023-04-21T04:37:11.048Z,16.97
2023-04-21T04:39:37.678Z,16.17
2023-04-21T04:42:08.946Z,15.80
2023-04-21T04:44:36.288Z,15.47
2023-04-21T04:47:04.025Z,15.77
2023-04-21T04:49:30.671Z,15.97
2023-04-21T04:51:57.329Z,15.60
2023-04-21T04:54:25.112Z,15.93
2023-04-21T04:56:51.704Z,16.13
2023-04-21T04:59:18.446Z,16.67
2023-04-21T05:01:45.144Z,16.63
2023-04-21T05:04:16.325Z,16.43
2023-04-21T05:06:43.299Z,16.23
2023-04-21T05:09:10.285Z,15.60
2023-04-21T05:11:36.983Z,15.70
2023-04-21T05:14:03.782Z,15.47
2023-04-21T05:16:30.491Z,15.80
2023-04-21T05:19:01.316Z,14.83
2023-04-21T05:21:28.757Z,14.03
2023-04-21T05:23:56.519Z,15.97
2023-04-21T05:26:24.488Z,16.27
2023-04-21T05:28:51.169Z,15.27
2023-04-21T05:31:17.888Z,14.23
2023-04-21T05:33:44.536Z,14.77
2023-04-21T05:36:11.824Z,13.37
2023-04-21T05:38:38.761Z,13.73
2023-04-21T05:41:05.811Z,13.80
2023-04-21T05:43:33.436Z,13.53
2023-04-21T05:46:08.331Z,13.13
2023-04-21T05:48:35.373Z,12.93
2023-04-21T05:51:13.759Z,13.70
2023-04-21T05:53:41.109Z,12.83
2023-04-21T05:56:11.733Z,13.80
2023-04-21T05:58:39.049Z,13.30
2023-04-21T06:01:09.269Z,13.57
2023-04-21T06:03:36.121Z,12.77
2023-04-21T06:06:05.304Z,13.23
2023-04-21T06:08:32.192Z,12.57
2023-04-21T06:10:58.854Z,13.03
2023-04-21T06:13:27.437Z,12.90
2023-04-21T06:15:54.923Z,12.00
2023-04-21T06:18:22.140Z,12.77
2023-04-21T06:20:53.105Z,11.93
2023-04-21T06:23:20.520Z,11.20
2023-04-21T06:25:47.743Z,10.70
2023-04-21T06:28:14.425Z,11.27
2023-04-21T06:30:41.053Z,11.30
2023-04-21T06:33:07.858Z,11.30
2023-04-21T06:35:35.768Z,10.63
2023-04-21T06:38:02.562Z,11.37
2023-04-21T06:40:29.323Z,10.80
2023-04-21T06:42:55.982Z,11.30
2023-04-21T06:45:23.080Z,11.37
2023-04-21T06:47:49.730Z,11.43
2023-04-21T06:50:16.464Z,10.50
2023-04-21T06:52:43.090Z,10.87
2023-04-21T06:55:09.798Z,11.00
2023-04-21T06:57:36.505Z,10.57
2023-04-21T07:00:05.647Z,9.90
2023-04-21T07:02:32.647Z,10.40
2023-04-21T07:04:59.287Z,9.47
2023-04-21T07:07:25.884Z,9.43
2023-04-21T07:09:52.565Z,10.10
2023-04-21T07:12:19.234Z,9.93
2023-04-21T07:14:45.964Z,9.93
2023-04-21T07:17:12.953Z,9.40
2023-04-21T07:19:40.073Z,9.60
2023-04-21T07:22:06.705Z,9.60
2023-04-21T07:24:35.438Z,10.20
2023-04-21T07:27:04.993Z,9.37
2023-04-21T07:29:31.857Z,9.47
2023-04-21T07:31:58.785Z,9.27
2023-04-21T07:34:25.650Z,8.97
2023-04-21T07:36:52.360Z,8.33
2023-04-21T07:39:19.255Z,8.57
2023-04-21T07:41:46.199Z,8.37
2023-04-21T07:44:12.836Z,9.17
2023-04-21T07:46:39.620Z,7.47
2023-04-21T07:49:06.494Z,7.90
2023-04-21T07:51:33.102Z,7.93
2023-04-21T07:53:59.873Z,7.67
2023-04-21T07:56:26.812Z,7.23
2023-04-21T07:58:53.459Z,7.77
2023-04-21T08:01:20.988Z,8.13
2023-04-21T08:03:49.003Z,8.23
2023-04-21T08:06:15.950Z,7.90
2023-04-21T08:08:44.143Z,8.20
2023-04-21T08:11:32.642Z,7.00
2023-04-21T08:14:00.497Z,7.20
2023-04-21T08:16:32.420Z,6.63
2023-04-21T08:18:59.224Z,6.47
2023-04-21T08:21:25.927Z,6.50
2023-04-21T08:23:52.906Z,6.07
2023-04-21T08:26:21.652Z,6.20
2023-04-21T08:28:51.903Z,5.83
2023-04-21T08:31:19.395Z,6.43
2023-04-21T08:33:57.911Z,7.10
2023-04-21T08:36:29.539Z,6.67
2023-04-21T08:38:57.228Z,7.37
2023-04-21T08:41:24.862Z,7.10
2023-04-21T08:43:51.715Z,6.15
2023-04-21T08:46:18.950Z,6.18
2023-04-21T08:48:47.153Z,5.45
2023-04-21T08:51:20.943Z,6.15
2023-04-21T08:53:47.881Z,6.63
2023-04-21T08:56:14.889Z,6.45
2023-04-21T08:58:42.049Z,5.80
2023-04-21T09:01:09.063Z,5.65
2023-04-21T09:03:36.141Z,4.88
2023-04-21T09:06:05.497Z,5.65
2023-04-21T09:08:33.602Z,4.72
2023-04-21T09:11:01.691Z,5.45
2023-04-21T09:13:36.188Z,5.32
2023-04-21T09:16:16.959Z,5.22
2023-04-21T09:18:44.467Z,5.43
2023-04-21T09:21:15.174Z,6.40
2023-04-21T09:23:49.393Z,6.05
2023-04-21T09:26:18.000Z,6.65
2023-04-21T09:28:46.854Z,6.30
2023-04-21T09:31:21.444Z,6.25
2023-04-21T09:36:22.115Z,4.90
2023-04-21T09:39:15.405Z,4.80
2023-04-21T09:41:43.264Z,4.30
2023-04-21T09:44:09.890Z,5.38
2023-04-21T09:46:37.262Z,5.53
2023-04-21T09:49:05.399Z,4.78
2023-04-21T09:51:56.227Z,5.10
2023-04-21T09:56:54.044Z,5.20
2023-04-21T09:59:26.036Z,5.28
2023-04-21T10:01:55.558Z,5.00
2023-04-21T10:04:24.014Z,5.20
2023-04-21T10:06:51.752Z,4.82
2023-04-21T10:09:22.573Z,4.82
2023-04-21T10:11:49.504Z,4.90
2023-04-21T10:14:16.185Z,4.40
2023-04-21T10:16:43.290Z,3.70
2023-04-21T10:19:27.762Z,4.22
2023-04-21T10:22:00.075Z,4.15
2023-04-21T10:24:30.521Z,4.22
2023-04-21T10:27:02.137Z,4.03
2023-04-21T10:29:40.039Z,3.78
2023-04-21T10:32:11.186Z,4.10
2023-04-21T10:34:38.698Z,3.65
2023-04-21T10:37:05.460Z,3.80
2023-04-21T10:39:35.955Z,3.75
2023-04-21T10:42:20.914Z,3.65
2023-04-21T10:45:02.519Z,3.35
2023-04-21T10:47:46.434Z,2.60
2023-04-21T10:50:17.964Z,2.75
2023-04-21T10:52:47.092Z,2.50
2023-04-21T10:55:16.956Z,2.50
2023-04-21T10:57:45.504Z,2.17
2023-04-21T11:00:16.327Z,2.25
2023-04-21T11:02:44.970Z,1.60
2023-04-21T11:05:12.400Z,1.45
2023-04-21T11:07:39.189Z,1.60
2023-04-21T11:10:11.073Z,1.63
2023-04-21T11:12:39.349Z,1.73
2023-04-21T11:15:11.886Z,1.40
2023-04-21T11:17:43.810Z,1.73
2023-04-21T11:20:10.835Z,1.30
2023-04-21T11:22:38.373Z,1.00
2023-04-21T11:25:05.648Z,1.25
2023-04-21T11:27:32.339Z,1.10
2023-04-21T11:29:59.066Z,1.20
2023-04-21T11:32:25.832Z,1.30
2023-04-21T11:34:52.623Z,1.40
2023-04-21T11:37:29.905Z,1.30
2023-04-21T11:40:00.952Z,1.15
2023-04-21T11:42:28.225Z,1.10
2023-04-21T11:44:56.504Z,1.15
2023-04-21T11:47:27.970Z,1.20
2023-04-21T11:49:56.858Z,1.55
2023-04-21T11:52:36.018Z,1.20
2023-04-21T11:55:05.628Z,1.48
2023-04-21T11:57:33.525Z,1.08
2023-04-21T12:00:02.095Z,1.30
2023-04-21T12:02:33.132Z,1.30
2023-04-21T12:05:10.026Z,1.57
2023-04-21T12:07:41.657Z,1.17
2023-04-21T12:10:11.745Z,1.17
2023-04-21T12:12:39.871Z,1.30
2023-04-21T12:15:08.242Z,1.00
2023-04-21T12:17:46.155Z,1.10
2023-04-21T12:20:16.291Z,1.10
2023-04-21T12:22:43.184Z,1.00
2023-04-21T12:25:09.916Z,1.00
2023-04-21T12:27:36.538Z,1.00
2023-04-21T12:30:04.049Z,1.17
2023-04-21T12:32:31.689Z,0.83
2023-04-21T12:34:58.395Z,1.10
2023-04-21T12:37:25.845Z,1.00
2023-04-21T12:39:52.510Z,1.10
2023-04-21T12:42:19.102Z,1.00
2023-04-21T12:44:45.897Z,1.30
2023-04-21T12:47:12.576Z,1.30
2023-04-21T12:49:39.325Z,0.80
2023-04-21T12:52:06.246Z,0.93
2023-04-21T12:54:33.831Z,0.90
2023-04-21T12:57:00.569Z,1.10
2023-04-21T12:59:27.315Z,0.80
2023-04-21T13:01:54.065Z,1.13
2023-04-21T13:04:21.761Z,0.60
2023-04-21T13:06:48.736Z,0.70
2023-04-21T13:09:15.793Z,0.70
2023-04-21T13:11:42.471Z,0.70
2023-04-21T13:14:09.087Z,0.60
2023-04-21T13:16:35.906Z,0.80
2023-04-21T13:19:02.605Z,0.70
2023-04-21T13:21:29.193Z,0.80
2023-04-21T13:23:57.301Z,0.60
2023-04-21T13:26:24.378Z,0.70
2023-04-21T13:28:51.495Z,0.50
2023-04-21T13:31:18.513Z,0.50
2023-04-21T13:33:45.378Z,0.60
2023-04-21T13:36:13.214Z,0.70
2023-04-21T13:38:40.670Z,0.60
2023-04-21T13:41:07.909Z,0.67
2023-04-21T13:43:34.980Z,0.70
2023-04-21T13:46:01.898Z,0.60
2023-04-21T13:48:29.731Z,0.60
2023-04-21T13:50:56.455Z,0.70
2023-04-21T13:53:23.184Z,0.80
2023-04-21T13:55:49.911Z,0.90
2023-04-21T13:58:17.107Z,0.63
2023-04-21T14:00:43.992Z,0.50
2023-04-21T14:03:11.617Z,0.57
2023-04-21T14:05:39.064Z,0.60
2023-04-21T14:08:06.158Z,0.80
2023-04-21T14:10:33.079Z,0.57
2023-04-21T14:13:00.256Z,0.60
2023-04-21T14:15:27.024Z,0.63
2023-04-21T14:17:53.994Z,0.50
2023-04-21T14:20:20.834Z,0.60
2023-04-21T14:22:47.661Z,0.70
2023-04-21T14:25:14.516Z,0.60
2023-04-21T14:27:41.335Z,2.00
2023-04-21T14:30:08.764Z,1.00
2023-04-21T14:32:35.748Z,0.57
2023-04-21T14:35:03.866Z,0.63
2023-04-21T14:37:30.765Z,0.73
2023-04-21T14:39:57.649Z,0.67
2023-04-21T14:42:27.243Z,0.70
2023-04-21T14:44:54.012Z,0.60
2023-04-21T14:47:21.796Z,0.50
2023-04-21T14:49:54.562Z,0.60
2023-04-21T14:52:24.508Z,0.63
2023-04-21T14:54:51.351Z,0.90
2023-04-21T14:57:21.133Z,0.87
2023-04-21T14:59:50.488Z,0.60
2023-04-21T15:02:17.494Z,0.60
2023-04-21T15:04:44.434Z,1.10
2023-04-21T15:07:11.401Z,1.20
2023-04-21T15:09:39.048Z,0.90
2023-04-21T15:12:06.176Z,1.20
2023-04-21T15:14:32.981Z,1.20
2023-04-21T15:16:59.768Z,1.40
2023-04-21T15:19:26.811Z,0.90
2023-04-21T15:21:53.561Z,1.30
2023-04-21T15:24:20.250Z,0.80
2023-04-21T15:26:46.956Z,0.97
2023-04-21T15:29:13.572Z,1.20
2023-04-21T15:31:40.637Z,1.00
2023-04-21T15:34:07.743Z,1.20
2023-04-21T15:36:34.473Z,1.00
2023-04-21T15:39:01.223Z,1.23
2023-04-21T15:41:29.454Z,1.20
2023-04-21T15:43:56.459Z,1.07
2023-04-21T15:46:23.318Z,1.50
2023-04-21T15:48:50.196Z,1.77
2023-04-21T15:51:18.858Z,1.77
2023-04-21T15:53:48.921Z,1.40
2023-04-21T15:56:16.736Z,1.53
2023-04-21T15:58:44.111Z,1.40
2023-04-21T16:01:11.126Z,1.40
2023-04-21T16:03:40.173Z,1.10
2023-04-21T16:06:07.722Z,1.30
2023-04-21T16:08:34.552Z,1.43
2023-04-21T16:11:01.454Z,1.37
2023-04-21T16:13:31.311Z,1.50
2023-04-21T16:15:58.047Z,1.40
2023-04-21T16:18:25.575Z,1.40
2023-04-21T16:20:52.702Z,1.47
2023-04-21T16:23:19.514Z,1.40
2023-04-21T16:25:46.188Z,1.87
2023-04-21T16:28:12.984Z,1.63
2023-04-21T16:30:43.226Z,2.23
2023-04-21T16:33:11.224Z,2.00
2023-04-21T16:35:38.827Z,1.90
2023-04-21T16:38:06.068Z,1.60
2023-04-21T16:40:33.011Z,1.90
2023-04-21T16:42:59.783Z,1.90
2023-04-21T16:45:28.004Z,1.77
2023-04-21T16:47:54.879Z,1.70
2023-04-21T16:50:21.833Z,1.80
2023-04-21T16:52:48.545Z,3.43
2023-04-21T16:55:15.205Z,3.90
2023-04-21T16:57:42.005Z,1.90
2023-04-21T17:00:09.406Z,2.03
2023-04-21T17:02:36.269Z,2.10
2023-04-21T17:05:04.019Z,1.63
2023-04-21T17:07:32.056Z,1.90
2023-04-21T17:09:58.927Z,1.80
2023-04-21T17:12:25.808Z,1.60
2023-04-21T17:14:52.499Z,1.50
2023-04-21T17:17:19.136Z,1.30
2023-04-21T17:19:45.842Z,1.23
2023-04-21T17:22:12.519Z,2.00
2023-04-21T17:24:51.903Z,1.80
2023-04-21T17:27:19.764Z,1.73
2023-04-21T17:29:47.028Z,1.50
2023-04-21T17:32:14.248Z,1.23
2023-04-21T17:34:41.009Z,1.40
2023-04-21T17:37:07.844Z,1.47
2023-04-21T17:39:34.549Z,1.60
2023-04-21T17:42:02.808Z,1.50
2023-04-21T17:44:29.985Z,1.10
2023-04-21T17:46:58.156Z,1.30
2023-04-21T17:49:25.352Z,1.30
2023-04-21T17:51:52.374Z,1.40
2023-04-21T17:54:19.114Z,1.40
2023-04-21T17:56:46.293Z,1.30
2023-04-21T17:59:13.876Z,1.30
2023-04-21T18:01:40.711Z,1.30
2023-04-21T18:04:07.897Z,1.40
2023-04-21T18:06:36.924Z,1.37
2023-04-21T18:09:07.190Z,1.20
2023-04-21T18:11:33.927Z,1.43
2023-04-21T18:14:00.538Z,1.40
2023-04-21T18:16:27.376Z,1.47
2023-04-21T18:18:54.022Z,1.77
2023-04-21T18:21:21.248Z,1.90
2023-04-21T18:23:48.104Z,2.00
2023-04-21T18:26:14.759Z,1.90
2023-04-21T18:28:41.557Z,1.57
2023-04-21T18:31:08.892Z,1.60
2023-04-21T18:33:35.804Z,1.70
2023-04-21T18:36:02.666Z,1.70
2023-04-21T18:38:29.390Z,2.00
2023-04-21T18:40:56.304Z,1.77
2023-04-21T18:43:22.992Z,1.93
2023-04-21T18:45:49.659Z,1.80
2023-04-21T18:48:16.321Z,1.80
2023-04-21T18:50:43.012Z,1.90
2023-04-21T18:53:09.722Z,1.63
2023-04-21T18:55:37.452Z,1.33
2023-04-21T18:58:04.320Z,1.60
2023-04-21T19:00:32.061Z,1.50
2023-04-21T19:03:02.845Z,1.57
2023-04-21T19:05:31.513Z,1.50
2023-04-21T19:07:58.794Z,1.30
2023-04-21T19:10:26.760Z,1.63
2023-04-21T19:12:54.072Z,1.47
2023-04-21T19:15:22.202Z,1.60
2023-04-21T19:17:48.962Z,1.73
2023-04-21T19:20:15.672Z,2.30
2023-04-21T19:22:42.372Z,2.20
2023-04-21T19:25:09.569Z,2.50
2023-04-21T19:27:36.635Z,2.53
2023-04-21T19:30:03.664Z,2.40
2023-04-21T19:32:31.392Z,2.70
2023-04-21T19:34:58.023Z,2.53
2023-04-21T19:37:26.322Z,2.80
2023-04-21T19:39:53.117Z,3.23
2023-04-21T19:42:19.748Z,2.80
2023-04-21T19:44:46.430Z,3.13
2023-04-21T19:47:13.151Z,3.03
2023-04-21T19:49:40.181Z,3.07
2023-04-21T19:52:07.019Z,3.17
2023-04-21T19:54:33.727Z,4.80
2023-04-21T19:57:01.593Z,4.37
2023-04-21T19:59:28.294Z,4.90
2023-04-21T20:01:54.995Z,4.20
2023-04-21T20:04:21.915Z,4.03
2023-04-21T20:06:48.852Z,3.80
2023-04-21T20:09:16.075Z,3.33
2023-04-21T20:11:43.285Z,4.13
2023-04-21T20:14:10.735Z,4.80
2023-04-21T20:16:37.704Z,4.77
2023-04-21T20:19:04.875Z,5.20
2023-04-21T20:21:33.230Z,4.83
2023-04-21T20:23:59.884Z,3.90
2023-04-21T20:26:26.626Z,3.10
2023-04-21T20:28:53.302Z,3.50
2023-04-21T20:31:23.531Z,3.10
2023-04-21T20:33:50.470Z,3.47
2023-04-21T20:36:17.700Z,3.60
2023-04-21T20:38:46.330Z,3.30
2023-04-21T20:41:13.429Z,2.90
2023-04-21T20:43:40.322Z,3.07
2023-04-21T20:46:08.734Z,2.73
2023-04-21T20:48:35.482Z,3.20
2023-04-21T20:51:02.626Z,2.70
2023-04-21T20:53:29.307Z,2.93
2023-04-21T20:55:56.056Z,2.63
2023-04-21T20:58:24.386Z,2.33
2023-04-21T21:00:51.264Z,2.70
2023-04-21T21:03:20.285Z,2.50
2023-04-21T21:05:47.576Z,2.63
2023-04-21T21:08:15.196Z,2.70
2023-04-21T21:10:42.114Z,2.30
2023-04-21T21:13:08.808Z,2.73
2023-04-21T21:15:35.488Z,2.10
2023-04-21T21:18:02.523Z,2.00
2023-04-21T21:20:29.201Z,2.10
2023-04-21T21:22:55.871Z,2.10
2023-04-21T21:25:22.504Z,2.27
2023-04-21T21:27:49.240Z,1.80
2023-04-21T21:30:16.014Z,1.90
2023-04-21T21:32:42.753Z,1.87
2023-04-21T21:35:10.328Z,1.70
2023-04-21T21:37:37.568Z,1.90
2023-04-21T21:40:04.715Z,1.80
2023-04-21T21:42:31.544Z,1.70
2023-04-21T21:44:58.265Z,1.67
2023-04-21T21:47:25.067Z,2.10
2023-04-21T21:49:54.870Z,1.70
2023-04-21T21:52:21.988Z,1.60
2023-04-21T21:54:48.613Z,1.57
2023-04-21T21:57:15.781Z,1.67
2023-04-21T21:59:42.470Z,1.50
2023-04-21T22:02:09.157Z,1.93
2023-04-21T22:04:35.968Z,1.50
2023-04-21T22:07:03.910Z,1.73
2023-04-21T22:09:30.819Z,1.90
2023-04-21T22:11:57.485Z,1.60
2023-04-21T22:14:24.388Z,1.80
2023-04-21T22:16:52.568Z,1.57
2023-04-21T22:19:19.614Z,1.80
2023-04-21T22:21:46.367Z,1.50
2023-04-21T22:24:13.146Z,1.70
2023-04-21T22:26:39.938Z,1.77
2023-04-21T22:29:06.948Z,1.80
2023-04-21T22:31:34.066Z,1.80
2023-04-21T22:34:00.818Z,1.50
2023-04-21T22:36:27.665Z,1.67
2023-04-21T22:38:54.420Z,1.73
2023-04-21T22:41:21.174Z,1.70
2023-04-21T22:43:48.011Z,1.40
2023-04-21T22:46:15.184Z,1.50
2023-04-21T22:48:41.953Z,1.80
2023-04-21T22:51:08.553Z,1.63
2023-04-21T22:53:35.486Z,1.80
2023-04-21T22:56:02.390Z,1.80
2023-04-21T22:58:29.171Z,1.60
2023-04-21T23:00:55.914Z,1.63
2023-04-21T23:03:23.460Z,1.80
2023-04-21T23:05:50.485Z,1.83
2023-04-21T23:08:17.150Z,2.03
2023-04-21T23:10:43.818Z,1.80
2023-04-21T23:13:10.695Z,1.70
2023-04-21T23:15:37.381Z,1.70
2023-04-21T23:18:04.349Z,1.70
2023-04-21T23:20:31.631Z,1.60
2023-04-21T23:22:58.679Z,1.70
2023-04-21T23:25:25.452Z,1.83
2023-04-21T23:27:52.230Z,1.70
2023-04-21T23:30:19.315Z,1.90
2023-04-21T23:32:46.646Z,1.63
2023-04-21T23:35:13.612Z,1.70
2023-04-21T23:37:40.458Z,1.50
2023-04-21T23:40:10.986Z,1.70
2023-04-21T23:42:38.736Z,1.53
2023-04-21T23:45:06.442Z,1.73
2023-04-21T23:47:33.825Z,1.87
2023-04-21T23:50:00.798Z,1.60
2023-04-21T23:52:27.601Z,1.70
2023-04-21T23:54:54.265Z,2.07
2023-04-21T23:57:21.266Z,1.57
2023-04-21T23:59:48.010Z,1.80
